Time;durP1;ratioP1;P1;durP2;ratioP2;P2;SDS_P1;SDS_P2;PMS_P1;PMS_P2;Temp;Humidity;BMP_temperature;BMP_pressure;BME280_temperature;BME280_humidity;BME280_pressure;Samples;Min_cycle;Max_cycle;Signal;HPM_P1;HPM_P2
2021/09/30 00:00:09;;;;;;;3.10;1.50;;;12.10;99.90;;;;;;5007340;28;20479;-70
2021/09/30 00:02:35;;;;;;;1.70;1.40;;;12.20;99.90;;;;;;5005434;28;20452;-70
2021/09/30 00:05:01;;;;;;;4.73;1.83;;;12.20;99.90;;;;;;5009441;28;20434;-71
2021/09/30 00:07:27;;;;;;;2.27;1.40;;;12.10;99.90;;;;;;5007686;28;20455;-71
2021/09/30 00:09:52;;;;;;;4.57;2.27;;;12.10;99.90;;;;;;5008410;28;20209;-70
2021/09/30 00:12:31;;;;;;;2.70;1.40;;;12.10;99.90;;;;;;5007357;28;20831;-70
2021/09/30 00:15:27;;;;;;;1.90;1.50;;;12.20;99.90;;;;;;5005100;28;20204;-70
2021/09/30 00:18:19;;;;;;;2.47;1.77;;;12.10;99.90;;;;;;5006129;28;20437;-71
2021/09/30 00:40:17;;;;;;;1.73;1.60;;;12.00;99.90;;;;;;5007724;28;20487;-71
2021/09/30 00:51:04;;;;;;;4.17;1.87;;;12.00;99.90;;;;;;4987399;28;20424;-71
2021/09/30 01:22:51;;;;;;;2.17;1.60;;;11.60;99.90;;;;;;5005970;28;20422;-71
2021/09/30 02:20:35;;;;;;;5.40;1.73;;;11.30;99.90;;;;;;5004967;28;20462;-71
2021/09/30 02:25:47;;;;;;;3.63;1.60;;;11.30;99.90;;;;;;5006248;28;20489;-70
2021/09/30 03:00:31;;;;;;;2.10;1.80;;;11.20;99.90;;;;;;5007655;28;20439;-70
2021/09/30 03:03:00;;;;;;;2.17;1.67;;;11.10;99.90;;;;;;5004090;28;20427;-70
2021/09/30 03:05:26;;;;;;;4.40;1.70;;;11.20;99.90;;;;;;5003261;28;20541;-72
2021/09/30 03:07:54;;;;;;;3.30;2.07;;;11.20;99.90;;;;;;5004701;28;20499;-70
2021/09/30 03:10:22;;;;;;;3.57;1.50;;;11.20;99.90;;;;;;5003831;28;20533;-71
2021/09/30 03:12:50;;;;;;;2.10;1.70;;;11.30;99.90;;;;;;5000274;28;20433;-71
2021/09/30 03:18:00;;;;;;;3.10;1.90;;;11.30;99.90;;;;;;5002685;28;20451;-71
2021/09/30 03:23:12;;;;;;;5.10;1.90;;;11.40;99.90;;;;;;5006115;28;20803;-71
2021/09/30 03:25:39;;;;;;;2.20;1.70;;;11.30;99.90;;;;;;5000980;28;20515;-70
2021/09/30 03:28:05;;;;;;;2.10;1.90;;;11.30;99.90;;;;;;5004134;28;20443;-70
2021/09/30 03:30:31;;;;;;;7.47;1.70;;;11.30;99.90;;;;;;5003320;28;20479;-70
2021/09/30 03:33:05;;;;;;;5.13;2.47;;;11.20;99.90;;;;;;5002293;28;20751;-71
2021/09/30 03:35:32;;;;;;;3.47;1.90;;;11.00;99.90;;;;;;5005654;28;21080;-71
2021/09/30 03:38:00;;;;;;;2.27;1.70;;;11.10;99.90;;;;;;5007267;28;20440;-69
2021/09/30 03:40:26;;;;;;;4.30;2.00;;;11.20;99.90;;;;;;4999849;28;20455;-69
2021/09/30 03:42:52;;;;;;;2.53;1.70;;;11.30;99.90;;;;;;5005693;28;20435;-71
2021/09/30 03:45:17;;;;;;;1.90;1.63;;;11.30;99.90;;;;;;5002580;28;21054;-71
2021/09/30 03:47:43;;;;;;;5.70;2.17;;;11.40;99.90;;;;;;5002006;28;20206;-71
2021/09/30 03:50:15;;;;;;;5.07;2.00;;;11.40;99.90;;;;;;5006863;28;20664;-70
2021/09/30 04:00:41;;;;;;;2.83;1.90;;;11.30;99.90;;;;;;5000623;28;20486;-70
2021/09/30 04:03:07;;;;;;;1.90;1.70;;;11.10;99.90;;;;;;5002693;28;20795;-71
2021/09/30 04:05:33;;;;;;;5.13;1.87;;;11.20;99.90;;;;;;5004802;28;20442;-70
2021/09/30 04:08:00;;;;;;;3.23;1.90;;;11.10;99.90;;;;;;5001093;28;21628;-70
2021/09/30 04:10:25;;;;;;;4.00;2.37;;;11.00;99.90;;;;;;5003240;28;20614;-70
2021/09/30 04:12:51;;;;;;;2.43;1.73;;;10.90;99.90;;;;;;5003149;28;20542;-69
2021/09/30 04:15:17;;;;;;;6.27;2.00;;;11.20;99.90;;;;;;5001927;28;20625;-70
2021/09/30 04:17:43;;;;;;;3.20;1.80;;;11.10;99.90;;;;;;5004921;28;20209;-70
2021/09/30 04:20:09;;;;;;;6.20;2.90;;;11.10;99.90;;;;;;5001391;28;20436;-70
2021/09/30 04:22:35;;;;;;;3.10;1.63;;;11.10;99.90;;;;;;5006950;28;20197;-69
2021/09/30 04:25:00;;;;;;;6.00;3.30;;;11.00;99.90;;;;;;5006819;28;20424;-70
2021/09/30 04:27:26;;;;;;;2.10;1.60;;;11.10;99.90;;;;;;5004559;28;20237;-69
2021/09/30 04:29:52;;;;;;;5.27;1.97;;;11.10;99.90;;;;;;5009777;28;20221;-70
2021/09/30 04:32:17;;;;;;;4.43;2.47;;;11.10;99.90;;;;;;5005531;28;20189;-71
2021/09/30 04:34:43;;;;;;;2.83;2.07;;;10.90;99.90;;;;;;4987230;28;20655;-71
2021/09/30 04:37:09;;;;;;;4.37;2.23;;;11.10;99.90;;;;;;5008664;28;20229;-71
2021/09/30 04:39:36;;;;;;;2.90;1.73;;;11.10;99.90;;;;;;5005713;28;20661;-71
2021/09/30 04:42:01;;;;;;;5.77;2.00;;;11.10;99.90;;;;;;5006428;28;20212;-69
2021/09/30 04:44:27;;;;;;;3.27;2.40;;;11.10;99.90;;;;;;5004106;28;20741;-70
2021/09/30 04:46:53;;;;;;;3.63;2.07;;;11.10;99.90;;;;;;5004272;28;20465;-69
2021/09/30 04:49:19;;;;;;;5.87;3.83;;;11.00;99.90;;;;;;5008986;28;20216;-70
2021/09/30 04:51:44;;;;;;;7.63;2.20;;;11.00;99.90;;;;;;5003809;28;20436;-70
2021/09/30 04:54:10;;;;;;;1.97;1.77;;;11.10;99.90;;;;;;5004590;28;20715;-70
2021/09/30 04:56:36;;;;;;;10.33;2.40;;;11.10;99.90;;;;;;5007827;28;20240;-70
2021/09/30 04:59:03;;;;;;;3.80;2.33;;;11.20;99.90;;;;;;5003554;28;20692;-71
2021/09/30 05:01:29;;;;;;;2.93;1.77;;;11.30;99.90;;;;;;5006319;28;20302;-69
2021/09/30 05:03:55;;;;;;;4.57;2.33;;;11.30;99.90;;;;;;4988674;28;20433;-70
2021/09/30 05:06:21;;;;;;;4.63;2.33;;;11.30;99.90;;;;;;5004546;28;20659;-69
2021/09/30 05:08:49;;;;;;;2.20;2.00;;;11.40;99.90;;;;;;5004960;28;20221;-69
2021/09/30 05:11:15;;;;;;;5.83;2.40;;;11.50;99.90;;;;;;5001043;28;20212;-69
2021/09/30 05:13:42;;;;;;;4.73;2.30;;;11.40;99.90;;;;;;5003390;28;20428;-70
2021/09/30 05:16:12;;;;;;;2.63;2.40;;;11.30;99.90;;;;;;5009465;28;20569;-69
2021/09/30 05:18:50;;;;;;;4.43;2.57;;;11.20;99.90;;;;;;5004340;28;20440;-69
2021/09/30 05:21:15;;;;;;;3.00;2.20;;;11.00;99.90;;;;;;5005497;28;20435;-72
2021/09/30 05:23:41;;;;;;;3.13;2.60;;;10.90;99.90;;;;;;5006655;28;20490;-70
2021/09/30 05:26:07;;;;;;;4.60;2.30;;;10.80;99.90;;;;;;5004453;28;20209;-70
2021/09/30 05:28:33;;;;;;;6.20;2.67;;;10.70;99.90;;;;;;5005433;28;20640;-70
2021/09/30 05:31:00;;;;;;;4.40;2.50;;;10.60;99.90;;;;;;5006879;28;20464;-70
2021/09/30 05:33:26;;;;;;;4.03;2.40;;;10.70;99.90;;;;;;5005470;28;20196;-70
2021/09/30 05:35:52;;;;;;;3.03;2.37;;;10.70;99.90;;;;;;5004683;28;20507;-70
2021/09/30 05:38:18;;;;;;;4.27;2.23;;;10.70;99.90;;;;;;5001964;28;20429;-71
2021/09/30 05:40:47;;;;;;;4.10;2.40;;;10.80;99.90;;;;;;5003644;28;20497;-71
2021/09/30 05:43:19;;;;;;;4.67;2.50;;;10.80;99.90;;;;;;4989502;28;20513;-70
2021/09/30 05:45:45;;;;;;;3.70;2.67;;;10.80;99.90;;;;;;5005541;28;20754;-70
2021/09/30 05:48:12;;;;;;;2.80;2.30;;;10.80;99.90;;;;;;5003351;28;20987;-70
2021/09/30 05:50:37;;;;;;;3.67;2.80;;;10.80;99.90;;;;;;5005512;28;20616;-71
2021/09/30 05:53:04;;;;;;;2.87;2.37;;;10.80;99.90;;;;;;5002477;28;20448;-71
2021/09/30 05:55:30;;;;;;;2.73;2.30;;;10.80;99.90;;;;;;5005604;28;20588;-70
2021/09/30 05:57:55;;;;;;;3.80;2.40;;;10.80;99.90;;;;;;5004584;28;20501;-70
2021/09/30 06:00:29;;;;;;;3.70;2.60;;;10.90;99.90;;;;;;5003188;28;20661;-70
2021/09/30 06:11:04;;;;;;;2.53;2.23;;;10.70;99.90;;;;;;5005775;28;20443;-70
2021/09/30 06:15:56;;;;;;;5.23;2.70;;;10.90;99.90;;;;;;5005729;28;20427;-71
2021/09/30 06:18:21;;;;;;;6.10;2.70;;;10.90;99.90;;;;;;5006529;28;20419;-71
2021/09/30 06:20:47;;;;;;;2.80;2.43;;;11.00;99.90;;;;;;5003132;28;20785;-71
2021/09/30 06:23:13;;;;;;;5.13;2.63;;;11.00;99.90;;;;;;5006288;28;20193;-70
2021/09/30 06:25:38;;;;;;;10.13;4.63;;;11.10;99.90;;;;;;5007558;28;20707;-70
2021/09/30 06:28:05;;;;;;;4.93;2.60;;;11.20;99.90;;;;;;5002581;28;20459;-70
2021/09/30 06:30:31;;;;;;;3.50;2.40;;;11.20;99.90;;;;;;5003988;28;20707;-70
2021/09/30 06:32:57;;;;;;;2.73;2.30;;;11.20;99.90;;;;;;5009311;28;20420;-70
2021/09/30 06:35:23;;;;;;;5.70;2.43;;;11.10;99.90;;;;;;5004421;28;20177;-70
2021/09/30 06:37:49;;;;;;;4.00;2.60;;;11.20;99.90;;;;;;5003090;28;20845;-71
2021/09/30 06:40:15;;;;;;;5.00;2.90;;;11.30;99.90;;;;;;5003665;28;20448;-70
2021/09/30 06:42:40;;;;;;;2.63;2.10;;;11.30;99.90;;;;;;5003582;28;20516;-71
2021/09/30 06:45:07;;;;;;;3.20;2.87;;;11.30;99.90;;;;;;5006860;28;20601;-70
2021/09/30 06:47:37;;;;;;;3.73;2.33;;;11.30;99.90;;;;;;5001942;28;20205;-71
2021/09/30 06:50:05;;;;;;;4.47;2.47;;;11.30;99.90;;;;;;5004723;28;20463;-69
2021/09/30 06:52:31;;;;;;;3.47;2.53;;;11.30;99.90;;;;;;5004516;28;20427;-69
2021/09/30 06:54:57;;;;;;;3.17;2.13;;;11.30;99.90;;;;;;5001267;28;20440;-71
2021/09/30 06:57:27;;;;;;;6.73;2.60;;;11.30;99.90;;;;;;5005777;28;20443;-71
2021/09/30 06:59:54;;;;;;;5.97;2.60;;;11.30;99.90;;;;;;5004850;28;20470;-70
2021/09/30 07:02:22;;;;;;;5.73;2.63;;;11.30;99.90;;;;;;5000356;28;20448;-69
2021/09/30 07:04:51;;;;;;;2.77;2.27;;;11.40;99.90;;;;;;4988544;28;20438;-70
2021/09/30 07:07:17;;;;;;;2.20;2.00;;;11.50;99.90;;;;;;5005124;28;21105;-70
2021/09/30 07:09:45;;;;;;;4.23;2.67;;;11.50;99.90;;;;;;5003349;28;20471;-70
2021/09/30 07:12:12;;;;;;;4.83;2.50;;;11.50;99.90;;;;;;5006520;28;20805;-70
2021/09/30 07:14:39;;;;;;;3.17;2.60;;;11.50;99.90;;;;;;5005784;28;20507;-70
2021/09/30 07:17:05;;;;;;;2.77;2.20;;;11.50;99.90;;;;;;5001925;28;20443;-71
2021/09/30 07:19:33;;;;;;;3.33;2.73;;;11.60;99.90;;;;;;5004012;28;20475;-70
2021/09/30 07:22:01;;;;;;;4.57;2.40;;;11.70;99.90;;;;;;4986800;28;20425;-69
2021/09/30 07:24:26;;;;;;;3.67;2.23;;;11.70;99.90;;;;;;5004681;28;20508;-70
2021/09/30 07:26:52;;;;;;;2.77;2.57;;;11.70;99.90;;;;;;5004663;28;20448;-71
2021/09/30 07:29:18;;;;;;;2.83;2.13;;;11.80;99.90;;;;;;5002657;28;20217;-70
2021/09/30 07:31:43;;;;;;;3.00;2.37;;;11.80;99.90;;;;;;5004262;28;20189;-70
2021/09/30 07:34:11;;;;;;;10.07;3.23;;;12.00;99.90;;;;;;5002765;28;20292;-71
2021/09/30 07:36:42;;;;;;;3.43;2.43;;;11.90;99.90;;;;;;4999914;28;20690;-70
2021/09/30 07:39:09;;;;;;;6.13;2.37;;;11.80;99.90;;;;;;5006004;28;20547;-70
2021/09/30 07:41:35;;;;;;;3.50;2.50;;;11.90;99.90;;;;;;5002971;28;20426;-69
2021/09/30 07:44:03;;;;;;;3.37;2.37;;;11.90;99.90;;;;;;5002684;28;20484;-71
2021/09/30 07:46:33;;;;;;;3.63;2.30;;;11.90;99.90;;;;;;5004183;28;20478;-71
2021/09/30 07:49:00;;;;;;;3.43;2.60;;;12.00;99.90;;;;;;5001612;28;20428;-70
2021/09/30 07:51:26;;;;;;;4.40;2.37;;;12.10;99.90;;;;;;5002742;28;20799;-70
2021/09/30 07:53:54;;;;;;;4.03;2.10;;;12.20;99.90;;;;;;5005982;28;20413;-70
2021/09/30 07:56:20;;;;;;;13.83;9.80;;;12.30;99.90;;;;;;5004461;28;20463;-70
2021/09/30 07:58:45;;;;;;;7.70;2.60;;;12.30;99.90;;;;;;5007140;28;20429;-70
2021/09/30 08:01:11;;;;;;;6.30;4.33;;;12.40;99.90;;;;;;5006315;28;20420;-70
2021/09/30 08:03:37;;;;;;;4.27;2.73;;;12.50;99.90;;;;;;5005785;28;20194;-70
2021/09/30 08:06:03;;;;;;;4.10;2.43;;;12.50;99.90;;;;;;5009208;28;20189;-69
2021/09/30 08:08:29;;;;;;;3.97;2.13;;;12.60;99.90;;;;;;5007886;28;20197;-71
2021/09/30 08:10:54;;;;;;;4.03;2.27;;;12.70;99.90;;;;;;5008470;28;20480;-71
2021/09/30 08:13:20;;;;;;;2.20;1.80;;;12.80;99.90;;;;;;5007849;28;20204;-70
2021/09/30 08:15:45;;;;;;;5.40;2.13;;;12.90;99.90;;;;;;5006476;28;20189;-69
2021/09/30 08:18:11;;;;;;;4.90;1.90;;;12.90;99.90;;;;;;5006199;28;20274;-70
2021/09/30 08:20:41;;;;;;;5.23;2.00;;;12.80;99.90;;;;;;5004656;28;20181;-69
2021/09/30 08:23:11;;;;;;;2.83;2.20;;;12.80;99.90;;;;;;5007370;28;20201;-69
2021/09/30 08:25:37;;;;;;;3.30;1.83;;;12.90;99.90;;;;;;5007800;28;20817;-70
2021/09/30 08:28:03;;;;;;;2.60;1.87;;;12.90;99.90;;;;;;5006176;28;20483;-69
2021/09/30 08:30:29;;;;;;;6.50;2.53;;;13.00;99.90;;;;;;5003686;28;20556;-70
2021/09/30 08:32:55;;;;;;;3.10;2.00;;;13.10;99.90;;;;;;5007946;28;20182;-70
2021/09/30 08:35:21;;;;;;;2.90;1.70;;;13.20;99.90;;;;;;5004383;28;20193;-70
2021/09/30 08:37:46;;;;;;;5.80;2.17;;;13.20;99.90;;;;;;5008790;28;20794;-70
2021/09/30 08:40:13;;;;;;;6.07;2.20;;;13.30;99.90;;;;;;5005229;28;20231;-70
2021/09/30 08:42:38;;;;;;;2.53;1.80;;;13.20;99.90;;;;;;5004679;28;20224;-70
2021/09/30 08:45:05;;;;;;;5.43;1.67;;;13.10;99.90;;;;;;5007803;28;20444;-70
2021/09/30 08:47:31;;;;;;;3.20;2.10;;;13.10;99.90;;;;;;4990179;28;20219;-71
2021/09/30 08:49:58;;;;;;;3.57;2.20;;;13.20;99.90;;;;;;5006281;28;20967;-70
2021/09/30 08:52:24;;;;;;;3.20;2.13;;;13.20;99.90;;;;;;5008033;28;20675;-68
2021/09/30 08:54:49;;;;;;;3.30;1.73;;;13.30;99.90;;;;;;5005743;28;20428;-70
2021/09/30 08:57:18;;;;;;;4.30;1.97;;;13.40;99.90;;;;;;5005473;28;20209;-70
2021/09/30 09:00:05;;;;;;;6.63;2.00;;;13.50;99.90;;;;;;5003628;28;20216;-71
2021/09/30 09:02:30;;;;;;;4.73;2.37;;;13.50;99.90;;;;;;5005037;28;20975;-71
2021/09/30 09:04:59;;;;;;;5.90;1.77;;;13.50;99.90;;;;;;5007797;28;20428;-71
2021/09/30 09:07:30;;;;;;;2.53;1.90;;;13.50;99.90;;;;;;5004613;28;20221;-69
2021/09/30 09:09:57;;;;;;;2.13;1.70;;;13.60;99.90;;;;;;5003036;28;20521;-70
2021/09/30 09:12:26;;;;;;;4.40;2.00;;;13.60;99.90;;;;;;5006920;28;20961;-70
2021/09/30 09:14:52;;;;;;;3.50;1.90;;;13.70;99.90;;;;;;5004371;28;20952;-70
2021/09/30 09:17:18;;;;;;;2.87;1.70;;;13.80;99.90;;;;;;5006425;28;20459;-71
2021/09/30 09:19:58;;;;;;;2.57;2.10;;;13.80;99.90;;;;;;5007656;28;20920;-70
2021/09/30 09:22:28;;;;;;;5.20;2.07;;;13.80;99.90;;;;;;5005417;28;20440;-70
2021/09/30 09:24:57;;;;;;;3.97;1.87;;;13.90;99.90;;;;;;5006076;28;20448;-70
2021/09/30 09:27:23;;;;;;;8.20;1.80;;;13.90;99.90;;;;;;5003875;28;20452;-68
2021/09/30 09:29:49;;;;;;;6.60;1.90;;;14.00;99.90;;;;;;5004277;28;20830;-70
2021/09/30 09:32:15;;;;;;;3.60;2.07;;;14.10;99.90;;;;;;5008035;28;20482;-71
2021/09/30 09:34:41;;;;;;;2.90;1.77;;;14.10;99.90;;;;;;5002887;28;20190;-71
2021/09/30 09:37:19;;;;;;;4.17;1.93;;;14.20;99.90;;;;;;5004408;28;20201;-69
2021/09/30 09:39:44;;;;;;;2.37;1.80;;;14.40;99.90;;;;;;5006848;28;20194;-69
2021/09/30 09:42:16;;;;;;;3.37;1.70;;;14.40;99.90;;;;;;5005769;28;20471;-70
2021/09/30 09:45:04;;;;;;;4.00;1.60;;;14.50;99.90;;;;;;5005100;28;20310;-70
2021/09/30 09:47:35;;;;;;;4.47;2.00;;;14.50;99.90;;;;;;5006475;28;20465;-69
2021/09/30 09:50:25;;;;;;;2.63;1.53;;;14.60;99.90;;;;;;5003770;28;20463;-71
2021/09/30 09:53:00;;;;;;;2.30;1.80;;;14.60;99.90;;;;;;5003238;28;20432;-70
2021/09/30 09:55:27;;;;;;;2.07;1.87;;;14.60;99.90;;;;;;5005722;28;20450;-71
2021/09/30 09:58:02;;;;;;;2.03;1.70;;;14.60;99.90;;;;;;5005203;28;20444;-71
2021/09/30 10:00:29;;;;;;;2.90;2.17;;;14.70;99.90;;;;;;5005696;28;20424;-70
2021/09/30 10:02:56;;;;;;;2.30;1.70;;;14.60;99.90;;;;;;5011408;28;20770;-71
2021/09/30 10:05:22;;;;;;;3.73;2.20;;;14.60;99.90;;;;;;5003980;28;20912;-70
2021/09/30 10:07:47;;;;;;;5.83;2.00;;;14.60;99.90;;;;;;5003737;28;20479;-70
2021/09/30 10:10:17;;;;;;;4.60;1.83;;;14.50;99.90;;;;;;5004204;28;20475;-70
2021/09/30 10:12:43;;;;;;;4.90;1.70;;;14.50;99.90;;;;;;5002481;28;20196;-70
2021/09/30 10:15:11;;;;;;;3.87;2.10;;;14.50;99.90;;;;;;5006817;28;20460;-70
2021/09/30 10:17:37;;;;;;;2.30;1.53;;;14.60;99.90;;;;;;5004126;28;20775;-69
2021/09/30 10:20:03;;;;;;;6.53;2.10;;;14.60;99.90;;;;;;5005014;28;20452;-71
2021/09/30 10:22:29;;;;;;;3.30;1.70;;;14.70;99.90;;;;;;5004968;28;20212;-71
2021/09/30 10:24:56;;;;;;;4.17;2.13;;;14.60;99.90;;;;;;5003159;28;21006;-71
2021/09/30 10:27:22;;;;;;;2.50;1.60;;;14.70;99.90;;;;;;5002003;28;20472;-70
2021/09/30 10:29:48;;;;;;;3.50;1.80;;;14.70;99.90;;;;;;4990736;28;20456;-71
2021/09/30 10:32:20;;;;;;;5.50;2.07;;;14.80;99.90;;;;;;5001701;28;20646;-69
2021/09/30 10:34:50;;;;;;;5.03;1.83;;;14.80;99.90;;;;;;5007103;28;20753;-70
2021/09/30 10:37:18;;;;;;;3.90;2.10;;;14.70;99.90;;;;;;5005012;28;21186;-70
2021/09/30 10:39:47;;;;;;;1.90;1.63;;;14.70;99.90;;;;;;5002059;28;20527;-71
2021/09/30 10:42:45;;;;;;;1.93;1.73;;;14.70;99.90;;;;;;5006344;28;20432;-70
2021/09/30 10:45:13;;;;;;;3.73;1.80;;;14.80;99.90;;;;;;5003068;28;20923;-70
2021/09/30 10:47:39;;;;;;;2.93;1.77;;;14.90;99.90;;;;;;5003456;28;20868;-70
2021/09/30 10:50:05;;;;;;;5.17;1.60;;;15.00;99.90;;;;;;5005830;28;20476;-69
2021/09/30 10:52:33;;;;;;;5.67;2.23;;;15.10;99.90;;;;;;5003927;28;20177;-70
2021/09/30 10:55:10;;;;;;;3.10;1.57;;;15.10;99.90;;;;;;5005008;28;20439;-70
2021/09/30 10:57:37;;;;;;;2.03;1.40;;;15.20;99.90;;;;;;5006405;28;20649;-70
2021/09/30 11:00:06;;;;;;;4.43;1.80;;;15.30;99.90;;;;;;5002205;28;20432;-71
2021/09/30 11:03:01;;;;;;;2.90;1.50;;;15.30;99.90;;;;;;5001278;28;20429;-71
2021/09/30 11:05:32;;;;;;;2.60;1.80;;;15.60;99.90;;;;;;5004348;28;21083;-72
2021/09/30 11:08:16;;;;;;;2.50;1.40;;;15.70;99.90;;;;;;5001286;28;20463;-71
2021/09/30 11:11:05;;;;;;;4.40;1.70;;;15.60;99.90;;;;;;5001894;28;20522;-72
2021/09/30 11:13:34;;;;;;;2.90;1.73;;;15.80;99.90;;;;;;5004218;28;20796;-71
2021/09/30 11:16:01;;;;;;;1.73;1.47;;;15.70;99.90;;;;;;5002702;28;20464;-69
2021/09/30 11:18:41;;;;;;;1.70;1.60;;;15.70;99.90;;;;;;5005222;28;20474;-70
2021/09/30 11:21:32;;;;;;;3.20;1.73;;;15.70;99.90;;;;;;5008359;28;20808;-70
2021/09/30 11:23:58;;;;;;;2.97;1.80;;;15.50;99.90;;;;;;5004689;28;20535;-71
2021/09/30 11:26:25;;;;;;;2.30;1.50;;;15.40;99.90;;;;;;5002109;28;20462;-69
2021/09/30 11:28:52;;;;;;;7.70;1.80;;;15.40;99.90;;;;;;5004227;28;20998;-69
2021/09/30 11:31:29;;;;;;;3.97;1.50;;;15.60;99.90;;;;;;5006808;28;21034;-70
2021/09/30 11:33:56;;;;;;;2.10;1.70;;;15.80;99.90;;;;;;5005671;28;20931;-70
2021/09/30 11:36:49;;;;;;;2.00;1.40;;;16.00;99.90;;;;;;4992637;28;20443;-70
2021/09/30 11:39:15;;;;;;;6.47;3.27;;;16.00;99.90;;;;;;5004583;28;20454;-70
2021/09/30 11:41:43;;;;;;;2.67;1.60;;;16.10;99.90;;;;;;5005784;28;20432;-71
2021/09/30 11:44:20;;;;;;;2.90;1.80;;;16.40;99.90;;;;;;5008842;28;21067;-70
2021/09/30 11:46:53;;;;;;;3.80;1.67;;;16.50;99.90;;;;;;5005731;28;20470;-71
2021/09/30 11:49:20;;;;;;;3.47;1.70;;;16.90;99.90;;;;;;5006990;28;21011;-70
2021/09/30 11:51:46;;;;;;;3.37;1.83;;;17.40;99.90;;;;;;5008622;28;20424;-70
2021/09/30 11:54:33;;;;;;;1.80;1.40;;;18.60;99.90;;;;;;5006619;28;20858;-70
2021/09/30 11:56:59;;;;;;;3.43;1.47;;;19.70;99.90;;;;;;5008749;28;20217;-70
2021/09/30 11:59:26;;;;;;;2.10;1.70;;;20.50;99.90;;;;;;5007503;28;20671;-70
2021/09/30 12:01:54;;;;;;;2.13;1.90;;;21.50;96.30;;;;;;5008236;28;20431;-70
2021/09/30 12:04:29;;;;;;;4.60;1.80;;;21.50;95.90;;;;;;5011051;28;20463;-70
2021/09/30 12:06:55;;;;;;;3.13;1.80;;;23.20;95.10;;;;;;5006867;28;20451;-70
2021/09/30 12:09:20;;;;;;;2.87;1.70;;;22.80;91.00;;;;;;4990621;28;20472;-70
2021/09/30 12:11:50;;;;;;;3.47;1.80;;;23.60;90.90;;;;;;5008150;28;20946;-70
2021/09/30 12:14:18;;;;;;;4.03;2.57;;;24.90;86.70;;;;;;5006198;28;20660;-70
2021/09/30 12:17:00;;;;;;;4.80;1.57;;;25.90;80.00;;;;;;5004352;28;20464;-71
2021/09/30 12:19:33;;;;;;;3.00;1.83;;;25.30;77.40;;;;;;5008995;28;20539;-71
2021/09/30 12:22:00;;;;;;;4.83;1.90;;;25.90;73.40;;;;;;5007097;28;20412;-70
2021/09/30 12:24:27;;;;;;;5.10;1.90;;;26.00;74.40;;;;;;5004344;28;20463;-70
2021/09/30 12:26:54;;;;;;;2.53;1.60;;;26.70;71.90;;;;;;5008108;28;20440;-70
2021/09/30 12:29:20;;;;;;;2.47;1.67;;;27.60;66.80;;;;;;5006200;28;21107;-69
2021/09/30 12:32:01;;;;;;;2.40;1.47;;;27.20;62.70;;;;;;5008709;28;20474;-70
2021/09/30 12:34:27;;;;;;;3.27;1.63;;;26.40;61.80;;;;;;5005779;28;20443;-70
2021/09/30 12:36:53;;;;;;;1.80;1.70;;;27.20;62.80;;;;;;5005798;28;20448;-70
2021/09/30 12:39:29;;;;;;;2.47;1.70;;;28.00;61.10;;;;;;5008657;28;20189;-71
2021/09/30 12:42:14;;;;;;;2.50;1.70;;;27.10;60.90;;;;;;5005104;28;20197;-70
2021/09/30 12:44:43;;;;;;;2.67;1.87;;;27.80;56.90;;;;;;5005262;28;20439;-70
2021/09/30 12:47:10;;;;;;;2.50;1.53;;;26.90;57.60;;;;;;5006911;28;20462;-71
2021/09/30 12:49:36;;;;;;;8.17;2.00;;;26.70;58.90;;;;;;5007527;28;20587;-70
2021/09/30 12:52:19;;;;;;;5.40;1.87;;;25.90;59.90;;;;;;5005572;28;20436;-70
2021/09/30 12:54:47;;;;;;;2.00;1.60;;;25.10;59.50;;;;;;5007106;28;20427;-70
2021/09/30 12:57:12;;;;;;;3.50;1.63;;;24.70;60.00;;;;;;5005781;28;20463;-70
2021/09/30 12:59:38;;;;;;;2.63;1.70;;;24.90;59.10;;;;;;5005652;28;20437;-70
2021/09/30 13:02:04;;;;;;;2.70;1.67;;;24.90;59.90;;;;;;5009093;28;20204;-70
2021/09/30 13:04:33;;;;;;;4.80;2.30;;;23.30;60.90;;;;;;5004729;28;20185;-70
2021/09/30 13:07:04;;;;;;;2.93;1.90;;;23.80;64.30;;;;;;5004943;28;20468;-70
2021/09/30 13:09:31;;;;;;;3.20;2.10;;;24.00;62.30;;;;;;4988526;28;20551;-70
2021/09/30 13:12:02;;;;;;;3.20;2.00;;;23.70;63.00;;;;;;5005294;28;20811;-70
2021/09/30 13:14:35;;;;;;;2.43;1.70;;;23.90;64.20;;;;;;5006227;28;20738;-70
2021/09/30 13:17:19;;;;;;;3.47;3.17;;;23.90;62.80;;;;;;5007180;28;20454;-69
2021/09/30 13:19:48;;;;;;;4.63;1.80;;;24.90;61.10;;;;;;5003187;28;20428;-70
2021/09/30 13:22:36;;;;;;;3.73;2.20;;;24.80;60.30;;;;;;5008020;28;20467;-70
2021/09/30 13:25:16;;;;;;;2.33;1.73;;;24.40;61.10;;;;;;5005769;28;20589;-70
2021/09/30 13:27:44;;;;;;;2.07;1.63;;;24.00;62.80;;;;;;5000970;28;20449;-69
2021/09/30 13:30:13;;;;;;;3.47;2.00;;;23.80;64.00;;;;;;5009444;28;20475;-69
2021/09/30 13:32:39;;;;;;;7.43;2.00;;;24.80;62.80;;;;;;5002935;28;20439;-70
2021/09/30 13:35:06;;;;;;;3.10;1.97;;;25.30;60.80;;;;;;5001461;28;20433;-71
2021/09/30 13:37:31;;;;;;;4.57;2.00;;;25.00;60.70;;;;;;5007337;28;20447;-71
2021/09/30 13:40:00;;;;;;;3.00;1.83;;;25.30;59.70;;;;;;5005012;28;20416;-71
2021/09/30 13:42:31;;;;;;;3.17;2.40;;;24.50;60.00;;;;;;5004098;28;20726;-71
2021/09/30 13:44:57;;;;;;;2.53;1.83;;;23.90;61.20;;;;;;5007538;28;20431;-71
2021/09/30 13:47:28;;;;;;;3.00;2.00;;;24.10;59.70;;;;;;5004544;28;20452;-70
2021/09/30 13:49:54;;;;;;;2.50;1.90;;;24.20;60.10;;;;;;5006459;28;20299;-71
2021/09/30 13:52:20;;;;;;;2.90;1.80;;;23.70;61.00;;;;;;4987763;28;20594;-72
2021/09/30 13:54:46;;;;;;;2.10;1.57;;;24.50;62.50;;;;;;5001256;28;20421;-70
2021/09/30 13:57:12;;;;;;;4.10;2.07;;;24.70;60.80;;;;;;5008248;28;20444;-70
2021/09/30 13:59:38;;;;;;;2.00;1.80;;;25.00;59.60;;;;;;5005331;28;20427;-70
2021/09/30 14:02:05;;;;;;;3.80;2.43;;;25.10;58.40;;;;;;5002805;28;20185;-71
2021/09/30 14:04:31;;;;;;;5.17;4.10;;;24.50;58.80;;;;;;5006917;28;20435;-71
2021/09/30 14:06:58;;;;;;;3.07;2.33;;;24.00;60.40;;;;;;5004696;28;20859;-71
2021/09/30 14:09:24;;;;;;;5.50;3.17;;;22.90;61.60;;;;;;5005437;28;20217;-71
2021/09/30 14:11:51;;;;;;;2.10;1.90;;;22.60;62.90;;;;;;4990317;28;20872;-70
2021/09/30 14:14:17;;;;;;;4.33;3.40;;;21.90;67.10;;;;;;5002607;28;20490;-70
2021/09/30 14:16:44;;;;;;;2.53;2.23;;;21.90;67.20;;;;;;5006682;28;20444;-70
2021/09/30 14:19:10;;;;;;;4.40;2.33;;;22.00;66.40;;;;;;5004007;28;20189;-70
2021/09/30 14:21:35;;;;;;;3.70;2.03;;;22.20;66.10;;;;;;5003808;28;20444;-71
2021/09/30 14:24:01;;;;;;;3.47;2.33;;;22.50;66.20;;;;;;5006216;28;20189;-71
2021/09/30 14:26:27;;;;;;;6.27;2.00;;;22.20;65.90;;;;;;5006167;28;20560;-71
2021/09/30 14:28:52;;;;;;;4.43;3.00;;;21.80;66.30;;;;;;5005185;28;20649;-71
2021/09/30 14:31:18;;;;;;;4.23;2.13;;;21.90;66.80;;;;;;5004674;28;20296;-71
2021/09/30 14:33:44;;;;;;;2.50;1.90;;;21.60;66.00;;;;;;5004412;28;20185;-71
2021/09/30 14:36:10;;;;;;;4.07;1.90;;;21.40;66.90;;;;;;5005295;28;20193;-70
2021/09/30 14:38:35;;;;;;;4.23;2.20;;;21.40;67.70;;;;;;5003915;28;20352;-71
2021/09/30 14:41:01;;;;;;;2.93;1.80;;;21.90;67.10;;;;;;5001959;28;20215;-71
2021/09/30 14:43:36;;;;;;;2.80;2.03;;;21.60;67.00;;;;;;4989316;28;20251;-72
2021/09/30 14:46:02;;;;;;;5.93;2.00;;;21.40;66.10;;;;;;5001031;28;20197;-70
2021/09/30 14:48:28;;;;;;;4.73;2.17;;;21.40;65.70;;;;;;5005997;28;20994;-69
2021/09/30 14:50:53;;;;;;;3.20;1.70;;;21.20;66.70;;;;;;5005551;28;20555;-70
2021/09/30 14:53:20;;;;;;;2.77;2.00;;;21.10;66.70;;;;;;5006626;28;20265;-71
2021/09/30 14:55:45;;;;;;;4.40;2.10;;;20.80;68.90;;;;;;5005332;28;20212;-70
2021/09/30 14:58:11;;;;;;;6.70;1.90;;;20.80;67.80;;;;;;5007207;28;20436;-70
2021/09/30 15:00:36;;;;;;;3.53;1.77;;;20.40;68.20;;;;;;5001675;28;20193;-72
2021/09/30 15:03:05;;;;;;;7.33;1.90;;;20.40;67.20;;;;;;4985713;28;20197;-69
2021/09/30 15:05:33;;;;;;;2.97;2.03;;;20.50;69.20;;;;;;5002214;28;20235;-70
2021/09/30 15:07:59;;;;;;;8.20;7.13;;;20.10;69.20;;;;;;5004439;28;20942;-70
2021/09/30 15:10:24;;;;;;;3.13;1.90;;;20.30;69.40;;;;;;5007119;28;20574;-71
2021/09/30 15:12:50;;;;;;;2.70;1.70;;;20.30;69.00;;;;;;5002651;28;20212;-71
2021/09/30 15:15:16;;;;;;;2.63;1.90;;;;;;;;;;5005131;28;20429;-70
2021/09/30 15:22:34;;;;;;;8.33;2.73;;;19.80;72.40;;;;;;5005905;28;20181;-71
2021/09/30 15:25:00;;;;;;;3.70;2.57;;;19.60;72.60;;;;;;5005566;28;20435;-71
2021/09/30 15:27:26;;;;;;;3.63;2.10;;;19.60;73.70;;;;;;5003204;28;21033;-71
2021/09/30 15:29:52;;;;;;;2.40;2.20;;;19.60;72.30;;;;;;5006053;28;20884;-71
2021/09/30 15:32:18;;;;;;;2.63;2.10;;;19.40;74.30;;;;;;5004100;28;20738;-71
2021/09/30 15:34:44;;;;;;;2.33;2.13;;;18.90;73.40;;;;;;5002288;28;20433;-71
2021/09/30 15:37:09;;;;;;;2.00;1.90;;;18.90;76.60;;;;;;5007165;28;20597;-71
2021/09/30 15:39:35;;;;;;;3.30;1.93;;;19.00;73.30;;;;;;5002107;28;20564;-71
2021/09/30 15:42:02;;;;;;;5.37;1.70;;;19.00;73.20;;;;;;5002907;28;20193;-71
2021/09/30 15:44:30;;;;;;;3.57;2.00;;;19.00;72.60;;;;;;5003675;28;20188;-70
2021/09/30 15:46:56;;;;;;;4.20;1.93;;;18.80;72.90;;;;;;4985517;28;20542;-70
2021/09/30 15:49:21;;;;;;;5.90;2.40;;;18.60;73.60;;;;;;5005083;28;21069;-71